sensor_id;sensor_type;location;lat;lon;timestamp;temperature;humidity
32536;DHT22;18974;50.838;4.636;2023-04-07T00:00:56;10.20;99.90
32536;DHT22;18974;50.838;4.636;2023-04-07T00:03:21;10.10;99.90
32536;DHT22;18974;50.838;4.636;2023-04-07T00:05:47;10.20;99.90
32536;DHT22;18974;50.838;4.636;2023-04-07T00:08:13;10.20;99.90
32536;DHT22;18974;50.838;4.636;2023-04-07T00:10:40;10.20;99.90
32536;DHT22;18974;50.838;4.636;2023-04-07T00:13:06;10.20;99.90
32536;DHT22;18974;50.838;4.636;2023-04-07T00:15:31;10.20;99.90
32536;DHT22;18974;50.838;4.636;2023-04-07T00:17:57;10.20;99.90
32536;DHT22;18974;50.838;4.636;2023-04-07T00:20:23;10.30;99.90
32536;DHT22;18974;50.838;4.636;2023-04-07T00:22:48;10.20;99.90
32536;DHT22;18974;50.838;4.636;2023-04-07T00:25:14;10.20;99.90
32536;DHT22;18974;50.838;4.636;2023-04-07T00:27:40;10.20;99.90
32536;DHT22;18974;50.838;4.636;2023-04-07T00:30:06;10.20;99.90
32536;DHT22;18974;50.838;4.636;2023-04-07T00:32:32;10.20;99.90
32536;DHT22;18974;50.838;4.636;2023-04-07T00:34:57;10.20;99.90
32536;DHT22;18974;50.838;4.636;2023-04-07T00:37:23;10.40;99.90
32536;DHT22;18974;50.838;4.636;2023-04-07T00:39:50;10.20;99.90
32536;DHT22;18974;50.838;4.636;2023-04-07T00:42:16;10.30;99.90
32536;DHT22;18974;50.838;4.636;2023-04-07T00:44:42;10.20;99.90
32536;DHT22;18974;50.838;4.636;2023-04-07T00:47:08;10.10;99.90
32536;DHT22;18974;50.838;4.636;2023-04-07T00:49:35;10.10;99.90
32536;DHT22;18974;50.838;4.636;2023-04-07T00:52:01;10.10;99.90
32536;DHT22;18974;50.838;4.636;2023-04-07T00:54:29;10.10;99.90
32536;DHT22;18974;50.838;4.636;2023-04-07T00:56:54;10.10;99.90
32536;DHT22;18974;50.838;4.636;2023-04-07T00:59:22;10.10;99.90
32536;DHT22;18974;50.838;4.636;2023-04-07T01:01:57;10.10;99.90
32536;DHT22;18974;50.838;4.636;2023-04-07T01:04:32;10.20;99.90
32536;DHT22;18974;50.838;4.636;2023-04-07T01:07:08;10.20;99.90
32536;DHT22;18974;50.838;4.636;2023-04-07T01:09:39;10.20;99.90
32536;DHT22;18974;50.838;4.636;2023-04-07T01:12:17;10.20;99.90
32536;DHT22;18974;50.838;4.636;2023-04-07T01:14:53;10.20;99.90
32536;DHT22;18974;50.838;4.636;2023-04-07T01:17:22;10.20;99.90
32536;DHT22;18974;50.838;4.636;2023-04-07T01:19:58;10.30;99.90
32536;DHT22;18974;50.838;4.636;2023-04-07T01:22:29;10.20;99.90
32536;DHT22;18974;50.838;4.636;2023-04-07T01:27:58;10.10;99.90
32536;DHT22;18974;50.838;4.636;2023-04-07T01:30:31;10.20;99.90
32536;DHT22;18974;50.838;4.636;2023-04-07T01:32:58;10.30;99.90
32536;DHT22;18974;50.838;4.636;2023-04-07T01:35:26;10.20;99.90
32536;DHT22;18974;50.838;4.636;2023-04-07T01:37:54;10.20;99.90
32536;DHT22;18974;50.838;4.636;2023-04-07T01:40:21;10.20;99.90
32536;DHT22;18974;50.838;4.636;2023-04-07T01:42:47;10.10;99.90
32536;DHT22;18974;50.838;4.636;2023-04-07T01:45:15;10.10;99.90
32536;DHT22;18974;50.838;4.636;2023-04-07T01:47:42;10.10;99.90
32536;DHT22;18974;50.838;4.636;2023-04-07T01:50:10;10.00;99.90
32536;DHT22;18974;50.838;4.636;2023-04-07T01:52:37;10.00;99.90
32536;DHT22;18974;50.838;4.636;2023-04-07T01:55:04;9.90;99.90
32536;DHT22;18974;50.838;4.636;2023-04-07T01:57:29;9.80;99.90
32536;DHT22;18974;50.838;4.636;2023-04-07T01:59:55;9.90;99.90
32536;DHT22;18974;50.838;4.636;2023-04-07T02:02:21;9.70;99.90
32536;DHT22;18974;50.838;4.636;2023-04-07T02:05:00;9.70;99.90
32536;DHT22;18974;50.838;4.636;2023-04-07T02:07:57;9.60;99.90
32536;DHT22;18974;50.838;4.636;2023-04-07T02:10:26;9.50;99.90
32536;DHT22;18974;50.838;4.636;2023-04-07T02:12:53;9.50;99.90
32536;DHT22;18974;50.838;4.636;2023-04-07T02:15:21;9.40;99.90
32536;DHT22;18974;50.838;4.636;2023-04-07T02:17:50;9.30;99.90
32536;DHT22;18974;50.838;4.636;2023-04-07T02:20:17;9.30;99.90
32536;DHT22;18974;50.838;4.636;2023-04-07T02:22:44;9.20;99.90
32536;DHT22;18974;50.838;4.636;2023-04-07T02:25:28;9.20;99.90
32536;DHT22;18974;50.838;4.636;2023-04-07T02:27:55;9.10;99.90
32536;DHT22;18974;50.838;4.636;2023-04-07T02:30:21;9.10;99.90
32536;DHT22;18974;50.838;4.636;2023-04-07T02:32:47;9.10;99.90
32536;DHT22;18974;50.838;4.636;2023-04-07T02:37:38;9.00;99.90
32536;DHT22;18974;50.838;4.636;2023-04-07T02:40:05;9.00;99.90
32536;DHT22;18974;50.838;4.636;2023-04-07T02:42:31;9.00;99.90
32536;DHT22;18974;50.838;4.636;2023-04-07T02:44:57;9.00;99.90
32536;DHT22;18974;50.838;4.636;2023-04-07T02:47:23;9.00;99.90
32536;DHT22;18974;50.838;4.636;2023-04-07T02:49:49;9.00;99.90
32536;DHT22;18974;50.838;4.636;2023-04-07T02:52:14;9.00;99.90
32536;DHT22;18974;50.838;4.636;2023-04-07T02:54:40;9.00;99.90
32536;DHT22;18974;50.838;4.636;2023-04-07T02:57:06;9.10;99.90
32536;DHT22;18974;50.838;4.636;2023-04-07T02:59:31;9.00;99.90
32536;DHT22;18974;50.838;4.636;2023-04-07T03:01:57;9.10;99.90
32536;DHT22;18974;50.838;4.636;2023-04-07T03:04:23;9.00;99.90
32536;DHT22;18974;50.838;4.636;2023-04-07T03:06:48;9.00;99.90
32536;DHT22;18974;50.838;4.636;2023-04-07T03:09:14;9.10;99.90
32536;DHT22;18974;50.838;4.636;2023-04-07T03:11:40;9.10;99.90
32536;DHT22;18974;50.838;4.636;2023-04-07T03:14:08;9.10;99.90
32536;DHT22;18974;50.838;4.636;2023-04-07T03:16:34;9.20;99.90
32536;DHT22;18974;50.838;4.636;2023-04-07T03:18:59;9.20;99.90
32536;DHT22;18974;50.838;4.636;2023-04-07T03:21:25;9.20;99.90
32536;DHT22;18974;50.838;4.636;2023-04-07T03:23:53;9.20;99.90
32536;DHT22;18974;50.838;4.636;2023-04-07T03:26:19;9.20;99.90
32536;DHT22;18974;50.838;4.636;2023-04-07T03:28:44;9.20;99.90
32536;DHT22;18974;50.838;4.636;2023-04-07T03:31:10;9.20;99.90
32536;DHT22;18974;50.838;4.636;2023-04-07T03:33:36;9.20;99.90
32536;DHT22;18974;50.838;4.636;2023-04-07T03:36:01;9.30;99.90
32536;DHT22;18974;50.838;4.636;2023-04-07T03:38:27;9.20;99.90
32536;DHT22;18974;50.838;4.636;2023-04-07T03:40:53;9.30;99.90
32536;DHT22;18974;50.838;4.636;2023-04-07T03:43:19;9.30;99.90
32536;DHT22;18974;50.838;4.636;2023-04-07T03:45:45;9.30;99.90
32536;DHT22;18974;50.838;4.636;2023-04-07T03:48:11;9.40;99.90
32536;DHT22;18974;50.838;4.636;2023-04-07T03:50:38;9.40;99.90
32536;DHT22;18974;50.838;4.636;2023-04-07T03:53:04;9.30;99.90
32536;DHT22;18974;50.838;4.636;2023-04-07T03:55:30;9.40;99.90
32536;DHT22;18974;50.838;4.636;2023-04-07T03:57:56;9.40;99.90
32536;DHT22;18974;50.838;4.636;2023-04-07T04:00:22;9.40;99.90
32536;DHT22;18974;50.838;4.636;2023-04-07T04:02:48;9.40;99.90
32536;DHT22;18974;50.838;4.636;2023-04-07T04:05:13;9.40;99.90
32536;DHT22;18974;50.838;4.636;2023-04-07T04:07:39;9.40;99.90
32536;DHT22;18974;50.838;4.636;2023-04-07T04:10:05;9.50;99.90
32536;DHT22;18974;50.838;4.636;2023-04-07T04:12:31;9.40;99.90
32536;DHT22;18974;50.838;4.636;2023-04-07T04:14:57;9.40;99.90
32536;DHT22;18974;50.838;4.636;2023-04-07T04:17:24;9.50;99.90
32536;DHT22;18974;50.838;4.636;2023-04-07T04:19:49;9.50;99.90
32536;DHT22;18974;50.838;4.636;2023-04-07T04:22:16;9.50;99.90
32536;DHT22;18974;50.838;4.636;2023-04-07T04:24:41;9.50;99.90
32536;DHT22;18974;50.838;4.636;2023-04-07T04:27:07;9.50;99.90
32536;DHT22;18974;50.838;4.636;2023-04-07T04:29:33;9.50;99.90
32536;DHT22;18974;50.838;4.636;2023-04-07T04:31:58;9.50;99.90
32536;DHT22;18974;50.838;4.636;2023-04-07T04:34:24;9.50;99.90
32536;DHT22;18974;50.838;4.636;2023-04-07T04:36:50;9.50;99.90
32536;DHT22;18974;50.838;4.636;2023-04-07T04:39:16;9.40;99.90
32536;DHT22;18974;50.838;4.636;2023-04-07T04:41:41;9.40;99.90
32536;DHT22;18974;50.838;4.636;2023-04-07T04:44:07;9.40;99.90
32536;DHT22;18974;50.838;4.636;2023-04-07T04:46:32;9.40;99.90
32536;DHT22;18974;50.838;4.636;2023-04-07T04:48:58;9.30;99.90
32536;DHT22;18974;50.838;4.636;2023-04-07T04:51:24;9.40;99.90
32536;DHT22;18974;50.838;4.636;2023-04-07T04:53:50;9.30;99.90
32536;DHT22;18974;50.838;4.636;2023-04-07T04:56:16;9.40;99.90
32536;DHT22;18974;50.838;4.636;2023-04-07T04:58:41;9.30;99.90
32536;DHT22;18974;50.838;4.636;2023-04-07T05:01:11;9.30;99.90
32536;DHT22;18974;50.838;4.636;2023-04-07T05:03:37;9.40;99.90
32536;DHT22;18974;50.838;4.636;2023-04-07T05:06:02;9.40;99.90
32536;DHT22;18974;50.838;4.636;2023-04-07T05:08:28;9.40;99.90
32536;DHT22;18974;50.838;4.636;2023-04-07T05:10:54;9.40;99.90
32536;DHT22;18974;50.838;4.636;2023-04-07T05:13:20;9.40;99.90
32536;DHT22;18974;50.838;4.636;2023-04-07T05:15:46;9.30;99.90
32536;DHT22;18974;50.838;4.636;2023-04-07T05:18:11;9.30;99.90
32536;DHT22;18974;50.838;4.636;2023-04-07T05:20:37;9.20;99.90
32536;DHT22;18974;50.838;4.636;2023-04-07T05:23:03;9.20;99.90
32536;DHT22;18974;50.838;4.636;2023-04-07T05:25:29;9.10;99.90
32536;DHT22;18974;50.838;4.636;2023-04-07T05:27:54;9.10;99.90
32536;DHT22;18974;50.838;4.636;2023-04-07T05:30:20;9.10;99.90
32536;DHT22;18974;50.838;4.636;2023-04-07T05:32:46;9.10;99.90
32536;DHT22;18974;50.838;4.636;2023-04-07T05:35:12;9.10;99.90
32536;DHT22;18974;50.838;4.636;2023-04-07T05:37:38;9.10;99.90
32536;DHT22;18974;50.838;4.636;2023-04-07T05:40:04;9.20;99.90
32536;DHT22;18974;50.838;4.636;2023-04-07T05:42:29;9.30;99.90
32536;DHT22;18974;50.838;4.636;2023-04-07T05:44:55;9.30;99.90
32536;DHT22;18974;50.838;4.636;2023-04-07T05:47:21;9.40;99.90
32536;DHT22;18974;50.838;4.636;2023-04-07T05:49:46;9.40;99.90
32536;DHT22;18974;50.838;4.636;2023-04-07T05:52:12;9.50;99.90
32536;DHT22;18974;50.838;4.636;2023-04-07T05:54:38;9.50;99.90
32536;DHT22;18974;50.838;4.636;2023-04-07T05:57:07;9.60;99.90
32536;DHT22;18974;50.838;4.636;2023-04-07T05:59:33;9.60;99.90
32536;DHT22;18974;50.838;4.636;2023-04-07T06:02:00;9.70;99.90
32536;DHT22;18974;50.838;4.636;2023-04-07T06:04:25;9.80;99.90
32536;DHT22;18974;50.838;4.636;2023-04-07T06:06:51;9.90;99.90
32536;DHT22;18974;50.838;4.636;2023-04-07T06:09:20;10.00;99.90
32536;DHT22;18974;50.838;4.636;2023-04-07T06:11:45;10.10;99.90
32536;DHT22;18974;50.838;4.636;2023-04-07T06:14:11;10.10;99.90
32536;DHT22;18974;50.838;4.636;2023-04-07T06:16:37;10.20;99.90
32536;DHT22;18974;50.838;4.636;2023-04-07T06:19:03;10.30;99.90
32536;DHT22;18974;50.838;4.636;2023-04-07T06:21:28;10.40;99.90
32536;DHT22;18974;50.838;4.636;2023-04-07T06:23:55;10.50;99.90
32536;DHT22;18974;50.838;4.636;2023-04-07T06:26:21;10.50;99.90
32536;DHT22;18974;50.838;4.636;2023-04-07T06:28:47;10.70;99.90
32536;DHT22;18974;50.838;4.636;2023-04-07T06:31:13;10.70;99.90
32536;DHT22;18974;50.838;4.636;2023-04-07T06:33:39;10.90;99.90
32536;DHT22;18974;50.838;4.636;2023-04-07T06:36:05;10.90;99.90
32536;DHT22;18974;50.838;4.636;2023-04-07T06:38:31;10.90;99.90
32536;DHT22;18974;50.838;4.636;2023-04-07T06:40:57;11.00;99.90
32536;DHT22;18974;50.838;4.636;2023-04-07T06:43:23;11.10;99.90
32536;DHT22;18974;50.838;4.636;2023-04-07T06:45:48;11.00;99.90
32536;DHT22;18974;50.838;4.636;2023-04-07T06:48:14;10.90;99.90
32536;DHT22;18974;50.838;4.636;2023-04-07T06:50:39;10.90;99.90
32536;DHT22;18974;50.838;4.636;2023-04-07T06:53:05;11.00;99.90
32536;DHT22;18974;50.838;4.636;2023-04-07T06:55:31;11.00;99.90
32536;DHT22;18974;50.838;4.636;2023-04-07T06:57:56;11.10;99.90
32536;DHT22;18974;50.838;4.636;2023-04-07T07:00:22;11.10;99.90
32536;DHT22;18974;50.838;4.636;2023-04-07T07:02:48;11.20;99.90
32536;DHT22;18974;50.838;4.636;2023-04-07T07:05:14;11.30;99.90
32536;DHT22;18974;50.838;4.636;2023-04-07T07:07:40;11.40;99.90
32536;DHT22;18974;50.838;4.636;2023-04-07T07:10:08;11.50;99.90
32536;DHT22;18974;50.838;4.636;2023-04-07T07:12:35;11.60;99.90
32536;DHT22;18974;50.838;4.636;2023-04-07T07:15:01;11.60;99.90
32536;DHT22;18974;50.838;4.636;2023-04-07T07:17:26;11.70;99.90
32536;DHT22;18974;50.838;4.636;2023-04-07T07:19:52;11.80;99.90
32536;DHT22;18974;50.838;4.636;2023-04-07T07:22:17;12.10;99.90
32536;DHT22;18974;50.838;4.636;2023-04-07T07:24:43;12.00;99.90
32536;DHT22;18974;50.838;4.636;2023-04-07T07:27:09;12.00;99.90
32536;DHT22;18974;50.838;4.636;2023-04-07T07:29:34;12.00;99.90
32536;DHT22;18974;50.838;4.636;2023-04-07T07:32:00;12.10;99.90
32536;DHT22;18974;50.838;4.636;2023-04-07T07:34:25;12.10;99.90
32536;DHT22;18974;50.838;4.636;2023-04-07T07:36:51;12.20;99.90
32536;DHT22;18974;50.838;4.636;2023-04-07T07:39:17;12.20;99.90
32536;DHT22;18974;50.838;4.636;2023-04-07T07:41:42;12.40;99.90
32536;DHT22;18974;50.838;4.636;2023-04-07T07:44:08;12.60;99.90
32536;DHT22;18974;50.838;4.636;2023-04-07T07:46:33;12.70;99.90
32536;DHT22;18974;50.838;4.636;2023-04-07T07:48:59;12.90;99.90
32536;DHT22;18974;50.838;4.636;2023-04-07T07:51:25;12.80;99.90
32536;DHT22;18974;50.838;4.636;2023-04-07T07:53:52;12.90;99.90
32536;DHT22;18974;50.838;4.636;2023-04-07T07:56:18;12.80;99.90
32536;DHT22;18974;50.838;4.636;2023-04-07T07:58:43;12.90;99.90
32536;DHT22;18974;50.838;4.636;2023-04-07T08:01:09;13.00;99.90
32536;DHT22;18974;50.838;4.636;2023-04-07T08:03:34;13.10;99.90
32536;DHT22;18974;50.838;4.636;2023-04-07T08:06:00;13.10;99.90
32536;DHT22;18974;50.838;4.636;2023-04-07T08:08:26;13.20;99.90
32536;DHT22;18974;50.838;4.636;2023-04-07T08:10:51;13.20;99.90
32536;DHT22;18974;50.838;4.636;2023-04-07T08:13:17;13.10;99.90
32536;DHT22;18974;50.838;4.636;2023-04-07T08:15:42;13.20;99.90
32536;DHT22;18974;50.838;4.636;2023-04-07T08:18:08;13.40;99.90
32536;DHT22;18974;50.838;4.636;2023-04-07T08:20:34;13.20;99.90
32536;DHT22;18974;50.838;4.636;2023-04-07T08:23:00;13.30;99.90
32536;DHT22;18974;50.838;4.636;2023-04-07T08:25:27;13.30;99.90
32536;DHT22;18974;50.838;4.636;2023-04-07T08:27:52;13.40;99.90
32536;DHT22;18974;50.838;4.636;2023-04-07T08:30:18;13.40;99.90
32536;DHT22;18974;50.838;4.636;2023-04-07T08:32:45;13.50;99.90
32536;DHT22;18974;50.838;4.636;2023-04-07T08:35:11;13.50;99.90
32536;DHT22;18974;50.838;4.636;2023-04-07T08:37:38;13.40;99.90
32536;DHT22;18974;50.838;4.636;2023-04-07T08:40:04;13.40;99.90
32536;DHT22;18974;50.838;4.636;2023-04-07T08:42:32;13.50;99.90
32536;DHT22;18974;50.838;4.636;2023-04-07T08:45:03;13.60;99.90
32536;DHT22;18974;50.838;4.636;2023-04-07T08:47:34;13.60;99.90
32536;DHT22;18974;50.838;4.636;2023-04-07T08:50:07;13.70;99.90
32536;DHT22;18974;50.838;4.636;2023-04-07T08:52:44;13.70;99.90
32536;DHT22;18974;50.838;4.636;2023-04-07T08:55:11;13.60;99.90
32536;DHT22;18974;50.838;4.636;2023-04-07T08:57:37;13.70;99.90
32536;DHT22;18974;50.838;4.636;2023-04-07T09:00:04;13.80;99.90
32536;DHT22;18974;50.838;4.636;2023-04-07T09:02:35;14.00;99.90
32536;DHT22;18974;50.838;4.636;2023-04-07T09:05:03;14.00;99.90
32536;DHT22;18974;50.838;4.636;2023-04-07T09:07:31;13.80;99.90
32536;DHT22;18974;50.838;4.636;2023-04-07T09:09:57;13.90;99.90
32536;DHT22;18974;50.838;4.636;2023-04-07T09:12:23;14.20;99.90
32536;DHT22;18974;50.838;4.636;2023-04-07T09:14:49;14.40;99.90
32536;DHT22;18974;50.838;4.636;2023-04-07T09:17:14;14.60;99.90
32536;DHT22;18974;50.838;4.636;2023-04-07T09:19:40;14.80;99.90
32536;DHT22;18974;50.838;4.636;2023-04-07T09:22:06;14.90;99.90
32536;DHT22;18974;50.838;4.636;2023-04-07T09:24:32;15.10;99.90
32536;DHT22;18974;50.838;4.636;2023-04-07T09:27:12;15.20;99.90
32536;DHT22;18974;50.838;4.636;2023-04-07T09:29:40;15.20;99.90
32536;DHT22;18974;50.838;4.636;2023-04-07T09:32:07;15.30;99.90
32536;DHT22;18974;50.838;4.636;2023-04-07T09:34:35;15.50;99.90
32536;DHT22;18974;50.838;4.636;2023-04-07T09:37:02;15.40;99.90
32536;DHT22;18974;50.838;4.636;2023-04-07T09:39:28;15.40;99.90
32536;DHT22;18974;50.838;4.636;2023-04-07T09:41:53;15.50;99.90
32536;DHT22;18974;50.838;4.636;2023-04-07T09:44:20;15.30;99.90
32536;DHT22;18974;50.838;4.636;2023-04-07T09:46:51;15.50;99.90
32536;DHT22;18974;50.838;4.636;2023-04-07T09:49:17;15.50;99.90
32536;DHT22;18974;50.838;4.636;2023-04-07T09:52:03;15.60;99.90
32536;DHT22;18974;50.838;4.636;2023-04-07T09:54:39;15.90;99.90
32536;DHT22;18974;50.838;4.636;2023-04-07T09:57:10;16.00;99.90
32536;DHT22;18974;50.838;4.636;2023-04-07T09:59:38;16.20;99.90
32536;DHT22;18974;50.838;4.636;2023-04-07T10:02:05;16.30;99.90
32536;DHT22;18974;50.838;4.636;2023-04-07T10:04:31;16.40;99.90
32536;DHT22;18974;50.838;4.636;2023-04-07T10:06:58;16.40;99.90
32536;DHT22;18974;50.838;4.636;2023-04-07T10:09:28;16.30;99.90
32536;DHT22;18974;50.838;4.636;2023-04-07T10:11:56;16.30;99.90
32536;DHT22;18974;50.838;4.636;2023-04-07T10:14:27;16.20;99.90
32536;DHT22;18974;50.838;4.636;2023-04-07T10:16:54;16.40;99.90
32536;DHT22;18974;50.838;4.636;2023-04-07T10:19:21;16.50;99.90
32536;DHT22;18974;50.838;4.636;2023-04-07T10:21:50;16.60;99.90
32536;DHT22;18974;50.838;4.636;2023-04-07T10:26:55;17.10;99.90
32536;DHT22;18974;50.838;4.636;2023-04-07T10:29:23;17.00;99.90
32536;DHT22;18974;50.838;4.636;2023-04-07T10:31:50;16.90;99.90
32536;DHT22;18974;50.838;4.636;2023-04-07T10:34:17;16.90;99.90
32536;DHT22;18974;50.838;4.636;2023-04-07T10:37:10;17.10;99.90
32536;DHT22;18974;50.838;4.636;2023-04-07T10:39:38;16.90;99.90
32536;DHT22;18974;50.838;4.636;2023-04-07T10:42:03;16.90;99.90
32536;DHT22;18974;50.838;4.636;2023-04-07T10:47:07;16.80;99.90
32536;DHT22;18974;50.838;4.636;2023-04-07T10:49:33;16.60;99.90
32536;DHT22;18974;50.838;4.636;2023-04-07T10:54:40;16.10;99.90
32536;DHT22;18974;50.838;4.636;2023-04-07T10:57:11;15.80;99.90
32536;DHT22;18974;50.838;4.636;2023-04-07T10:59:40;15.50;99.90
32536;DHT22;18974;50.838;4.636;2023-04-07T11:04:43;15.10;99.90
32536;DHT22;18974;50.838;4.636;2023-04-07T11:07:10;15.00;99.90
32536;DHT22;18974;50.838;4.636;2023-04-07T11:09:36;15.00;99.90
32536;DHT22;18974;50.838;4.636;2023-04-07T11:12:02;15.00;99.90
32536;DHT22;18974;50.838;4.636;2023-04-07T11:14:28;15.00;99.90
32536;DHT22;18974;50.838;4.636;2023-04-07T11:16:55;15.10;99.90
32536;DHT22;18974;50.838;4.636;2023-04-07T11:19:21;15.20;99.90
32536;DHT22;18974;50.838;4.636;2023-04-07T11:21:47;15.50;99.90
32536;DHT22;18974;50.838;4.636;2023-04-07T11:24:36;15.70;99.90
32536;DHT22;18974;50.838;4.636;2023-04-07T11:27:04;15.90;99.90
32536;DHT22;18974;50.838;4.636;2023-04-07T11:29:31;16.10;99.90
32536;DHT22;18974;50.838;4.636;2023-04-07T11:31:58;16.10;99.90
32536;DHT22;18974;50.838;4.636;2023-04-07T11:34:32;16.10;99.90
32536;DHT22;18974;50.838;4.636;2023-04-07T11:37:21;16.30;99.90
32536;DHT22;18974;50.838;4.636;2023-04-07T11:39:54;16.50;99.90
32536;DHT22;18974;50.838;4.636;2023-04-07T11:42:36;16.60;99.90
32536;DHT22;18974;50.838;4.636;2023-04-07T11:45:03;16.80;99.90
32536;DHT22;18974;50.838;4.636;2023-04-07T11:47:35;16.80;99.90
32536;DHT22;18974;50.838;4.636;2023-04-07T11:50:07;16.90;99.90
32536;DHT22;18974;50.838;4.636;2023-04-07T11:52:45;16.60;99.90
32536;DHT22;18974;50.838;4.636;2023-04-07T11:55:22;16.30;99.90
32536;DHT22;18974;50.838;4.636;2023-04-07T11:57:49;16.40;99.90
32536;DHT22;18974;50.838;4.636;2023-04-07T12:00:19;16.30;99.90
32536;DHT22;18974;50.838;4.636;2023-04-07T12:02:47;16.40;99.90
32536;DHT22;18974;50.838;4.636;2023-04-07T12:05:13;16.50;99.90
32536;DHT22;18974;50.838;4.636;2023-04-07T12:07:39;16.30;99.90
32536;DHT22;18974;50.838;4.636;2023-04-07T12:10:19;16.30;99.90
32536;DHT22;18974;50.838;4.636;2023-04-07T12:12:46;16.30;99.90
32536;DHT22;18974;50.838;4.636;2023-04-07T12:15:12;16.20;99.90
32536;DHT22;18974;50.838;4.636;2023-04-07T12:17:42;16.20;99.90
32536;DHT22;18974;50.838;4.636;2023-04-07T12:20:08;16.30;99.90
32536;DHT22;18974;50.838;4.636;2023-04-07T12:22:34;16.20;99.90
32536;DHT22;18974;50.838;4.636;2023-04-07T12:25:00;16.30;99.90
32536;DHT22;18974;50.838;4.636;2023-04-07T12:27:26;16.50;99.90
32536;DHT22;18974;50.838;4.636;2023-04-07T12:29:52;16.60;99.90
32536;DHT22;18974;50.838;4.636;2023-04-07T12:32:18;16.50;99.90
32536;DHT22;18974;50.838;4.636;2023-04-07T12:34:44;16.40;99.90
32536;DHT22;18974;50.838;4.636;2023-04-07T12:37:09;16.50;99.90
32536;DHT22;18974;50.838;4.636;2023-04-07T12:39:35;16.50;99.90
32536;DHT22;18974;50.838;4.636;2023-04-07T12:42:01;16.60;99.90
32536;DHT22;18974;50.838;4.636;2023-04-07T12:44:26;16.80;99.90
32536;DHT22;18974;50.838;4.636;2023-04-07T12:46:52;16.60;99.90
32536;DHT22;18974;50.838;4.636;2023-04-07T12:49:17;16.20;99.90
32536;DHT22;18974;50.838;4.636;2023-04-07T12:51:43;15.80;99.90
32536;DHT22;18974;50.838;4.636;2023-04-07T12:54:09;15.60;99.90
32536;DHT22;18974;50.838;4.636;2023-04-07T12:56:40;15.50;99.90
32536;DHT22;18974;50.838;4.636;2023-04-07T12:59:06;15.40;99.90
32536;DHT22;18974;50.838;4.636;2023-04-07T13:01:33;15.40;99.90
32536;DHT22;18974;50.838;4.636;2023-04-07T13:03:59;15.50;99.90
32536;DHT22;18974;50.838;4.636;2023-04-07T13:06:26;15.60;99.90
32536;DHT22;18974;50.838;4.636;2023-04-07T13:08:51;15.60;99.90
32536;DHT22;18974;50.838;4.636;2023-04-07T13:11:17;15.60;99.90
32536;DHT22;18974;50.838;4.636;2023-04-07T13:13:43;15.70;99.90
32536;DHT22;18974;50.838;4.636;2023-04-07T13:16:09;15.80;99.90
32536;DHT22;18974;50.838;4.636;2023-04-07T13:18:34;16.00;99.90
32536;DHT22;18974;50.838;4.636;2023-04-07T13:21:01;15.90;99.90
32536;DHT22;18974;50.838;4.636;2023-04-07T13:23:26;15.80;99.90
32536;DHT22;18974;50.838;4.636;2023-04-07T13:25:52;15.80;99.90
32536;DHT22;18974;50.838;4.636;2023-04-07T13:28:18;15.70;99.90
32536;DHT22;18974;50.838;4.636;2023-04-07T13:30:45;15.70;99.90
32536;DHT22;18974;50.838;4.636;2023-04-07T13:33:11;15.80;99.90
32536;DHT22;18974;50.838;4.636;2023-04-07T13:35:36;15.80;99.90
32536;DHT22;18974;50.838;4.636;2023-04-07T13:38:02;15.70;99.90
32536;DHT22;18974;50.838;4.636;2023-04-07T13:40:29;15.70;99.90
32536;DHT22;18974;50.838;4.636;2023-04-07T13:42:54;15.60;99.90
32536;DHT22;18974;50.838;4.636;2023-04-07T13:45:21;15.50;99.90
32536;DHT22;18974;50.838;4.636;2023-04-07T13:47:47;15.50;99.90
32536;DHT22;18974;50.838;4.636;2023-04-07T13:50:13;15.60;99.90
32536;DHT22;18974;50.838;4.636;2023-04-07T13:52:38;15.70;99.90
32536;DHT22;18974;50.838;4.636;2023-04-07T13:55:05;15.70;99.90
32536;DHT22;18974;50.838;4.636;2023-04-07T13:57:31;15.70;99.90
32536;DHT22;18974;50.838;4.636;2023-04-07T13:59:56;15.50;99.90
32536;DHT22;18974;50.838;4.636;2023-04-07T14:02:22;15.40;99.90
32536;DHT22;18974;50.838;4.636;2023-04-07T14:04:49;15.40;99.90
32536;DHT22;18974;50.838;4.636;2023-04-07T14:07:15;15.20;99.90
32536;DHT22;18974;50.838;4.636;2023-04-07T14:09:43;15.10;99.90
32536;DHT22;18974;50.838;4.636;2023-04-07T14:12:10;15.10;99.90
32536;DHT22;18974;50.838;4.636;2023-04-07T14:14:36;15.10;99.90
32536;DHT22;18974;50.838;4.636;2023-04-07T14:17:02;15.20;99.90
32536;DHT22;18974;50.838;4.636;2023-04-07T14:19:28;15.00;99.90
32536;DHT22;18974;50.838;4.636;2023-04-07T14:21:54;15.00;99.90
32536;DHT22;18974;50.838;4.636;2023-04-07T14:24:20;15.10;99.90
32536;DHT22;18974;50.838;4.636;2023-04-07T14:26:46;15.10;99.90
32536;DHT22;18974;50.838;4.636;2023-04-07T14:29:12;15.10;99.90
32536;DHT22;18974;50.838;4.636;2023-04-07T14:31:38;15.20;99.90
32536;DHT22;18974;50.838;4.636;2023-04-07T14:34:04;15.20;99.90
32536;DHT22;18974;50.838;4.636;2023-04-07T14:36:30;15.30;99.90
32536;DHT22;18974;50.838;4.636;2023-04-07T14:38:56;15.30;99.90
32536;DHT22;18974;50.838;4.636;2023-04-07T14:41:23;15.40;99.90
32536;DHT22;18974;50.838;4.636;2023-04-07T14:43:49;15.40;99.90
32536;DHT22;18974;50.838;4.636;2023-04-07T14:46:21;15.30;99.90
32536;DHT22;18974;50.838;4.636;2023-04-07T14:48:47;15.10;99.90
32536;DHT22;18974;50.838;4.636;2023-04-07T14:51:13;14.90;99.90
32536;DHT22;18974;50.838;4.636;2023-04-07T14:53:40;14.80;99.90
32536;DHT22;18974;50.838;4.636;2023-04-07T14:56:06;14.60;99.90
32536;DHT22;18974;50.838;4.636;2023-04-07T14:58:32;14.50;99.90
32536;DHT22;18974;50.838;4.636;2023-04-07T15:00:58;14.50;99.90
32536;DHT22;18974;50.838;4.636;2023-04-07T15:03:23;14.50;99.90
32536;DHT22;18974;50.838;4.636;2023-04-07T15:05:49;14.60;99.90
32536;DHT22;18974;50.838;4.636;2023-04-07T15:08:15;14.70;99.90
32536;DHT22;18974;50.838;4.636;2023-04-07T15:10:40;14.60;99.90
32536;DHT22;18974;50.838;4.636;2023-04-07T15:13:06;14.60;99.90
32536;DHT22;18974;50.838;4.636;2023-04-07T15:15:32;14.50;99.90
32536;DHT22;18974;50.838;4.636;2023-04-07T15:17:57;14.50;99.90
32536;DHT22;18974;50.838;4.636;2023-04-07T15:20:23;14.50;99.90
32536;DHT22;18974;50.838;4.636;2023-04-07T15:22:49;14.30;99.90
32536;DHT22;18974;50.838;4.636;2023-04-07T15:25:14;14.00;99.90
32536;DHT22;18974;50.838;4.636;2023-04-07T15:27:40;13.90;99.90
32536;DHT22;18974;50.838;4.636;2023-04-07T15:30:07;13.80;99.90
32536;DHT22;18974;50.838;4.636;2023-04-07T15:32:32;14.00;99.90
32536;DHT22;18974;50.838;4.636;2023-04-07T15:34:58;14.20;99.90
32536;DHT22;18974;50.838;4.636;2023-04-07T15:37:24;14.40;99.90
32536;DHT22;18974;50.838;4.636;2023-04-07T15:39:50;14.50;99.90
32536;DHT22;18974;50.838;4.636;2023-04-07T15:42:16;14.70;99.90
32536;DHT22;18974;50.838;4.636;2023-04-07T15:44:41;14.90;99.90
32536;DHT22;18974;50.838;4.636;2023-04-07T15:47:08;15.10;99.90
32536;DHT22;18974;50.838;4.636;2023-04-07T15:49:34;15.20;99.90